Philadelphia International Airport
KPHL : now visible

Airfield :











YOU CAN JOIN US ON...

 
LOGIN :

Register | Disclaimer

   EN    FR    IT 

 









Legend :    VFR   Marginal VFR   IFR   Intensive IFR   Very Intensive IFR
Visi :
Ceiling :
>= 8 km
>= 3000ft
5 to 8 km
1000 to 3000 ft
1500m to 5 km
500 to 1000 ft
800 to 1500m
200 to 500 ft
< 800m
< 200 ft
Symbols :   Thunderstorms  Fog  Heavy snow  Heavy precipitations  Wind > 20 kt






- Airport Elevation : 36 ft
- IATA code : PHL


KPHL - Philadelphia International

CURRENT METAR :
  • 120254Z 31015G21KT 10SM CLR 01/M12 A3049 RMK AO2 SLP326 T00061122 53021 $

EXPIRED METARs :
  • 120154Z 30015G21KT 10SM CLR 01/M12 A3047 RMK AO2 SLP319 T00111117 $
  • 120054Z 28009KT 10SM CLR 01/M09 A3045 RMK AO2 SLP309 T00111094 $

TAF KPHL
Valid from the 12 at 03:00 until the 13 at 06:00 UTC


120308Z 1203/1306 30010G18KT P6SM SKC
FM120400 32005KT P6SM SKC
FM120900 35005KT P6SM SKC
FM122100 15004KT P6SM SKC
FM130400 12004KT P6SM SCT035



MET'MAP, your aeronautical weather chart ! - Copyright ORBIFLY December 2007 - Disclaimer

ORBIFLY MET'MAP TEAM :

Programming & Development : Alexandra Zaïnal
Concept & original design : Baudouin d'Aumeries
Assistance for programming : Marc-Olivier Méhu
Technical & hardware support : Manuel Goepfert

Contact : metmap@orbifly.com




SOURCES & CREDITS :

   NOAA       Earth
Advisory